Pagina principale
METAR-TAF:

METAR-TAF

Aeroporti :

Taba, Egitto

latitudine: 29-35-57N, longitudine: 034-46-36E, altezza: 749 m

METAR: mancante

Ora: 11:33 (09:33 UTC)

Previsione

Il bollettino è stato emesso 4 ore e 33 minuti fa, alle 05:00 UTC
Previsione valida dal 18 alle 06 UTC al 19 alle 12 UTC
Vento 12 kt da nord
Visibilità 10 km o più
nessuna nube inferiore a 1500 m e nessun cumulonembo

TAF: HETB 180500Z 1806/1912 01012KT CAVOK

Osservazioni e previsioni meteorologiche di più di 4000 aeroporti (messaggi METAR e TAF).

Le stazioni disponibili sono rappresentate dai dischi gialli e rossi sulla carta.

Puntare il mouse per vedere il nome della stazione.

Clicca sopra per visualizzare le osservazioni e previsioni meteorologiche.

Per cambiare la mappa : fare clic sui pulsanti verdi con una croce nera per ingrandire, il pulsante verde con un trattino per diminuire, o sulla freccia verde per le mappe adiacenti.


METAR-TAF: